Time;durP1;ratioP1;P1;durP2;ratioP2;P2;SDS_P1;SDS_P2;PMS_P1;PMS_P2;Temp;Humidity;BMP_temperature;BMP_pressure;BME280_temperature;BME280_humidity;BME280_pressure;Samples;Min_cycle;Max_cycle;Signal;HPM_P1;HPM_P2
2022/12/24 00:02:59;;;;;;;13.25;7.75;;;23.20;47.70;;;;;;6069297;28;80568;-63
2022/12/24 00:06:00;;;;;;;15.00;7.65;;;23.20;47.70;;;;;;6078797;28;82697;-63
2022/12/24 00:09:00;;;;;;;13.25;7.72;;;23.20;47.80;;;;;;6072405;28;80856;-64
2022/12/24 00:12:01;;;;;;;12.23;7.15;;;23.20;47.80;;;;;;6073265;28;82114;-65
2022/12/24 00:15:01;;;;;;;12.10;7.63;;;23.20;47.70;;;;;;6056989;28;80467;-67
2022/12/24 00:18:02;;;;;;;15.93;7.45;;;23.20;47.80;;;;;;6074084;28;80484;-66
2022/12/24 00:21:02;;;;;;;11.18;6.57;;;23.20;47.70;;;;;;6055859;28;82922;-69
2022/12/24 00:24:04;;;;;;;12.15;6.63;;;23.20;47.70;;;;;;6058113;28;80805;-70
2022/12/24 00:27:05;;;;;;;12.77;6.80;;;23.20;47.80;;;;;;6065544;28;80157;-72
2022/12/24 00:30:05;;;;;;;12.85;6.57;;;23.20;47.80;;;;;;6081468;28;80933;-73
2022/12/24 00:33:06;;;;;;;10.95;6.63;;;23.20;47.80;;;;;;6072242;28;81480;-69
2022/12/24 00:36:06;;;;;;;11.98;6.75;;;23.20;47.80;;;;;;6062173;28;81507;-71
2022/12/24 00:39:07;;;;;;;9.93;5.63;;;23.20;47.80;;;;;;6087851;28;80560;-72
2022/12/24 00:42:08;;;;;;;12.38;6.63;;;23.20;47.80;;;;;;6066215;28;83017;-71
2022/12/24 00:45:08;;;;;;;11.43;6.65;;;23.20;47.70;;;;;;6066531;28;80797;-71
2022/12/24 00:48:09;;;;;;;11.07;5.80;;;23.20;47.80;;;;;;6067022;28;82805;-71
2022/12/24 00:51:09;;;;;;;8.35;5.50;;;23.20;47.80;;;;;;6067864;28;84710;-70
2022/12/24 00:54:10;;;;;;;9.15;5.45;;;23.20;47.80;;;;;;6074263;28;82488;-59
2022/12/24 00:57:10;;;;;;;8.07;5.13;;;23.20;47.80;;;;;;6075023;28;81277;-59
2022/12/24 01:00:11;;;;;;;10.15;5.75;;;23.20;47.80;;;;;;6075193;28;80672;-59
2022/12/24 01:03:11;;;;;;;9.07;5.22;;;23.20;47.80;;;;;;6077896;28;82633;-59
2022/12/24 01:06:12;;;;;;;6.93;5.00;;;23.20;47.70;;;;;;6064139;28;80437;-59
2022/12/24 01:09:12;;;;;;;7.53;4.80;;;23.20;47.70;;;;;;6058307;28;81005;-59
2022/12/24 01:12:13;;;;;;;7.70;4.75;;;23.10;47.70;;;;;;6075339;28;82824;-60
2022/12/24 01:15:13;;;;;;;6.85;4.65;;;23.20;47.50;;;;;;6059305;28;80710;-59
2022/12/24 01:18:14;;;;;;;8.25;4.45;;;23.20;47.40;;;;;;6075289;28;81780;-59
2022/12/24 01:21:14;;;;;;;8.48;4.35;;;23.10;48.20;;;;;;6059172;28;80645;-59
2022/12/24 01:24:15;;;;;;;6.10;4.57;;;23.10;47.40;;;;;;6058101;28;80845;-60
2022/12/24 01:27:15;;;;;;;6.75;4.22;;;23.10;47.40;;;;;;6058725;28;80354;-60
2022/12/24 01:30:16;;;;;;;6.75;4.15;;;23.10;47.50;;;;;;6064997;28;80779;-63
2022/12/24 01:33:17;;;;;;;4.88;3.70;;;23.10;47.50;;;;;;6092327;28;81420;-62
2022/12/24 01:36:17;;;;;;;6.45;3.65;;;23.10;47.70;;;;;;6084121;28;80758;-62
2022/12/24 01:39:18;;;;;;;6.22;4.10;;;23.10;47.80;;;;;;6091518;28;83961;-62
2022/12/24 01:45:37;;;;;;;4.57;3.03;;;23.10;47.50;;;;;;6080623;28;80747;-63
2022/12/24 01:48:38;;;;;;;6.82;3.60;;;23.10;47.40;;;;;;6070166;28;84779;-69
2022/12/24 01:51:38;;;;;;;5.38;3.38;;;23.10;47.40;;;;;;6056932;28;80746;-68
2022/12/24 01:54:39;;;;;;;4.07;3.03;;;23.10;47.40;;;;;;6057770;28;81008;-71
2022/12/24 01:57:39;;;;;;;5.63;3.40;;;23.10;47.50;;;;;;6056684;28;82445;-73
2022/12/24 02:00:40;;;;;;;5.07;3.40;;;23.10;47.50;;;;;;6063644;28;80226;-73
2022/12/24 02:03:41;;;;;;;4.45;3.08;;;23.10;47.50;;;;;;6070262;28;81904;-72
2022/12/24 02:06:41;;;;;;;4.85;3.33;;;23.10;47.30;;;;;;6123454;28;81245;-59
2022/12/24 02:09:42;;;;;;;4.25;3.05;;;23.10;47.30;;;;;;6083336;28;81511;-59
2022/12/24 02:12:42;;;;;;;3.65;2.67;;;23.10;47.30;;;;;;6084214;28;81415;-59
2022/12/24 02:15:43;;;;;;;4.72;3.15;;;23.10;47.40;;;;;;6073858;28;81094;-60
2022/12/24 02:18:43;;;;;;;3.08;2.53;;;23.10;47.40;;;;;;6059489;28;80395;-61
2022/12/24 02:21:44;;;;;;;3.72;2.53;;;23.10;47.30;;;;;;6058536;28;81065;-61
2022/12/24 02:24:44;;;;;;;3.72;2.65;;;23.10;47.40;;;;;;6059939;28;81170;-62
2022/12/24 02:27:45;;;;;;;3.85;2.90;;;23.10;47.40;;;;;;6059659;28;80856;-63
2022/12/24 02:30:45;;;;;;;3.50;2.17;;;23.10;47.40;;;;;;6064194;28;81029;-63
2022/12/24 02:33:46;;;;;;;4.32;2.42;;;23.10;47.40;;;;;;6073945;28;81375;-61
2022/12/24 02:36:46;;;;;;;3.20;2.28;;;23.10;47.50;;;;;;6063065;28;81639;-63
2022/12/24 02:39:47;;;;;;;2.95;2.45;;;23.10;47.50;;;;;;6072425;28;81337;-62
2022/12/24 02:42:47;;;;;;;2.47;2.00;;;23.10;47.50;;;;;;6060727;28;82603;-62
2022/12/24 02:45:48;;;;;;;3.80;2.30;;;23.10;47.60;;;;;;6063769;28;81196;-68
2022/12/24 02:48:48;;;;;;;3.08;2.00;;;23.10;47.60;;;;;;6074068;28;80484;-68
2022/12/24 02:51:49;;;;;;;2.20;2.00;;;23.10;47.70;;;;;;6079138;28;81095;-65
2022/12/24 02:54:50;;;;;;;3.30;2.10;;;23.10;47.70;;;;;;6114592;28;80792;-66
2022/12/24 02:57:50;;;;;;;3.63;2.03;;;23.10;48.00;;;;;;6070226;28;81223;-66
2022/12/24 03:00:51;;;;;;;2.30;1.80;;;23.10;47.90;;;;;;6069207;28;80209;-66
2022/12/24 03:03:51;;;;;;;2.20;1.98;;;23.10;48.20;;;;;;6072791;28;83101;-72
2022/12/24 03:06:52;;;;;;;2.50;1.80;;;23.10;48.00;;;;;;6083610;28;80688;-72
2022/12/24 03:09:52;;;;;;;2.80;2.00;;;23.10;48.00;;;;;;6105872;28;81710;-71
2022/12/24 03:12:53;;;;;;;1.90;1.70;;;23.10;48.00;;;;;;6084857;28;80540;-70
2022/12/24 03:15:54;;;;;;;2.33;1.83;;;23.10;48.20;;;;;;6074688;28;80749;-70
2022/12/24 03:18:54;;;;;;;1.95;1.70;;;23.10;47.90;;;;;;6059999;28;81234;-69
2022/12/24 03:21:55;;;;;;;2.63;1.85;;;23.10;48.00;;;;;;6060421;28;80286;-66
2022/12/24 03:24:55;;;;;;;2.65;1.70;;;23.10;47.80;;;;;;6051327;28;83232;-65
2022/12/24 03:27:56;;;;;;;3.78;2.30;;;23.10;47.80;;;;;;6076823;28;81527;-65
2022/12/24 03:30:56;;;;;;;2.50;1.67;;;23.10;48.00;;;;;;6083115;28;80621;-65
2022/12/24 03:33:57;;;;;;;1.95;1.60;;;23.10;48.00;;;;;;6083121;28;81675;-65
2022/12/24 03:36:58;;;;;;;2.25;1.73;;;23.10;48.10;;;;;;6065390;28;87584;-64
2022/12/24 03:39:58;;;;;;;2.88;1.95;;;23.10;47.90;;;;;;6089159;28;80317;-64
2022/12/24 03:42:59;;;;;;;1.85;1.40;;;23.10;47.90;;;;;;6088089;28;81126;-66
2022/12/24 03:45:59;;;;;;;2.42;1.80;;;23.10;47.90;;;;;;6084387;28;80490;-66
2022/12/24 03:49:00;;;;;;;1.98;1.55;;;23.10;47.90;;;;;;6092189;28;80795;-67
2022/12/24 03:52:00;;;;;;;2.10;1.70;;;23.10;47.80;;;;;;6082776;28;80270;-66
2022/12/24 03:55:01;;;;;;;1.98;1.70;;;23.10;47.70;;;;;;6081772;28;81190;-66
2022/12/24 03:58:01;;;;;;;3.30;1.58;;;23.00;47.60;;;;;;6081199;28;80424;-65
2022/12/24 04:01:02;;;;;;;1.83;1.58;;;23.10;47.60;;;;;;6081684;28;83461;-65
2022/12/24 04:04:02;;;;;;;2.15;1.42;;;23.00;47.60;;;;;;6063703;28;80734;-67
2022/12/24 04:07:03;;;;;;;1.95;1.70;;;23.00;47.70;;;;;;6066944;28;81049;-65
2022/12/24 04:10:03;;;;;;;2.00;1.40;;;23.10;47.70;;;;;;6065538;28;80678;-66
2022/12/24 04:13:04;;;;;;;1.95;1.60;;;23.10;47.60;;;;;;6077632;28;81742;-65
2022/12/24 04:16:04;;;;;;;2.78;2.13;;;23.10;47.80;;;;;;6065324;28;80427;-71
2022/12/24 04:19:05;;;;;;;2.65;1.95;;;23.10;47.50;;;;;;6058703;28;80367;-70
2022/12/24 04:22:05;;;;;;;2.25;1.75;;;23.10;47.50;;;;;;6064933;28;80588;-71
2022/12/24 04:25:07;;;;;;;3.70;1.83;;;23.10;47.50;;;;;;6081293;28;81888;-73
2022/12/24 04:28:08;;;;;;;3.38;2.13;;;23.20;47.40;;;;;;6074433;28;87329;-73
2022/12/24 04:31:08;;;;;;;3.83;2.30;;;23.20;47.30;;;;;;6072859;28;83005;-72
2022/12/24 04:34:09;;;;;;;4.43;3.17;;;23.20;47.10;;;;;;6071470;28;80941;-69
2022/12/24 04:37:09;;;;;;;4.93;2.95;;;23.30;47.00;;;;;;6057202;28;80588;-69
2022/12/24 04:40:10;;;;;;;4.22;3.03;;;23.30;46.90;;;;;;6059401;28;81337;-68
2022/12/24 04:43:10;;;;;;;5.18;3.35;;;23.30;46.80;;;;;;6063881;28;80628;-69
2022/12/24 04:46:11;;;;;;;4.13;3.38;;;23.40;46.80;;;;;;6061261;28;81107;-67
2022/12/24 04:49:11;;;;;;;4.65;3.67;;;23.40;46.70;;;;;;6062828;28;80408;-68
2022/12/24 04:52:12;;;;;;;5.47;3.90;;;23.50;46.70;;;;;;6071093;28;81622;-70
2022/12/24 04:55:12;;;;;;;6.53;4.50;;;23.50;46.60;;;;;;6059790;28;80692;-70
2022/12/24 04:58:13;;;;;;;6.53;4.72;;;23.50;46.50;;;;;;6067529;28;81350;-74
2022/12/24 05:01:13;;;;;;;4.88;4.35;;;23.50;46.30;;;;;;6078798;28;82332;-73
2022/12/24 05:04:14;;;;;;;6.03;4.90;;;23.50;46.40;;;;;;6075555;28;80456;-70
2022/12/24 05:07:14;;;;;;;5.82;4.38;;;23.60;46.60;;;;;;6081927;28;80452;-68
2022/12/24 05:10:15;;;;;;;8.48;4.55;;;23.60;46.60;;;;;;6066521;28;80647;-65
2022/12/24 05:13:15;;;;;;;5.63;4.35;;;23.60;46.80;;;;;;6079609;28;80630;-66
2022/12/24 05:16:16;;;;;;;4.78;3.72;;;23.60;46.80;;;;;;6077014;28;82398;-65
2022/12/24 05:19:16;;;;;;;4.60;3.50;;;23.60;46.90;;;;;;6072730;28;80342;-65
2022/12/24 05:28:55;;;;;;;4.50;3.58;;;23.70;47.50;;;;;;6081724;28;80919;-61
2022/12/24 05:31:56;;;;;;;4.20;3.40;;;23.70;48.00;;;;;;6090815;28;80489;-59
2022/12/24 05:34:56;;;;;;;4.32;3.33;;;23.70;48.10;;;;;;6081307;28;80688;-61
2022/12/24 05:37:57;;;;;;;4.07;3.15;;;23.70;47.60;;;;;;6081577;28;81344;-62
2022/12/24 05:40:57;;;;;;;4.53;3.58;;;23.70;47.60;;;;;;6080056;28;80958;-61
2022/12/24 05:43:58;;;;;;;6.45;3.03;;;23.70;48.00;;;;;;6081685;28;80055;-59
2022/12/24 05:46:58;;;;;;;6.80;3.33;;;23.80;48.10;;;;;;6079504;28;80656;-65
2022/12/24 05:49:59;;;;;;;7.75;3.47;;;23.80;48.10;;;;;;6086674;28;81808;-66
2022/12/24 05:52:59;;;;;;;4.57;3.25;;;23.80;48.20;;;;;;6081194;28;81415;-66
2022/12/24 05:56:00;;;;;;;4.30;3.38;;;23.80;48.30;;;;;;6061279;28;80267;-65
2022/12/24 05:59:00;;;;;;;4.03;3.03;;;23.80;49.00;;;;;;6074734;28;81176;-66
2022/12/24 06:02:01;;;;;;;6.35;3.00;;;23.80;48.40;;;;;;6077135;28;81365;-65
2022/12/24 06:05:01;;;;;;;3.92;2.83;;;23.80;48.50;;;;;;6086963;28;81318;-62
2022/12/24 06:08:02;;;;;;;4.38;2.80;;;23.80;48.80;;;;;;6062444;28;86091;-59
2022/12/24 06:11:02;;;;;;;6.78;3.20;;;23.80;48.70;;;;;;6069785;28;80582;-61
2022/12/24 06:14:03;;;;;;;6.55;2.97;;;23.70;48.80;;;;;;6058161;28;80548;-63
2022/12/24 06:17:04;;;;;;;6.15;3.20;;;23.70;48.90;;;;;;6073903;28;82254;-63
2022/12/24 06:20:04;;;;;;;4.00;2.50;;;23.70;49.00;;;;;;6046177;28;83946;-63
2022/12/24 06:23:05;;;;;;;3.20;2.78;;;23.70;48.90;;;;;;6056664;28;81070;-64
2022/12/24 06:26:05;;;;;;;3.85;3.13;;;23.70;49.00;;;;;;6061150;28;80938;-62
2022/12/24 06:29:06;;;;;;;6.90;3.13;;;23.70;49.20;;;;;;6052647;28;80656;-63
2022/12/24 06:32:06;;;;;;;6.13;2.85;;;23.60;49.20;;;;;;6048549;28;83707;-70
2022/12/24 06:35:07;;;;;;;4.65;2.90;;;23.60;50.00;;;;;;6054687;28;80896;-70
2022/12/24 06:38:07;;;;;;;4.05;2.53;;;23.60;49.70;;;;;;6058663;28;80730;-61
2022/12/24 06:41:08;;;;;;;5.20;2.78;;;23.60;49.80;;;;;;6066901;28;81473;-70
2022/12/24 06:44:08;;;;;;;3.42;2.53;;;23.60;49.90;;;;;;6075780;28;81380;-59
2022/12/24 06:47:09;;;;;;;6.70;2.97;;;23.60;50.10;;;;;;6077576;28;80546;-59
2022/12/24 06:50:09;;;;;;;5.63;2.55;;;23.60;50.30;;;;;;6076752;28;82701;-60
2022/12/24 06:53:10;;;;;;;8.90;3.78;;;23.50;50.70;;;;;;6076140;28;80068;-61
2022/12/24 06:56:10;;;;;;;5.15;3.45;;;23.50;50.20;;;;;;6063519;28;81908;-57
2022/12/24 06:59:11;;;;;;;8.05;3.75;;;23.50;49.80;;;;;;6066214;28;81750;-59
2022/12/24 07:02:11;;;;;;;5.18;4.05;;;23.50;49.20;;;;;;6072042;28;81442;-64
2022/12/24 07:05:12;;;;;;;5.05;3.97;;;23.50;48.90;;;;;;6066580;28;80991;-65
2022/12/24 07:08:12;;;;;;;5.30;4.03;;;23.50;48.80;;;;;;6066144;28;80812;-67
2022/12/24 07:11:13;;;;;;;4.65;3.67;;;23.50;48.90;;;;;;6066506;28;81869;-63
2022/12/24 07:14:14;;;;;;;6.85;4.32;;;23.50;49.00;;;;;;6071856;28;82510;-66
2022/12/24 07:17:14;;;;;;;5.57;4.22;;;23.50;49.10;;;;;;6064968;28;82062;-66
2022/12/24 07:20:15;;;;;;;7.03;4.93;;;23.50;49.10;;;;;;6067744;28;83168;-60
2022/12/24 07:23:15;;;;;;;8.00;4.47;;;23.50;49.40;;;;;;6074306;28;81200;-61
2022/12/24 07:26:16;;;;;;;7.25;4.57;;;23.50;49.80;;;;;;6074593;28;80613;-61
2022/12/24 07:29:16;;;;;;;6.68;4.55;;;23.50;50.00;;;;;;6071803;28;81566;-61
2022/12/24 07:32:19;;;;;;;5.57;4.22;;;23.50;50.30;;;;;;6068272;28;82684;-61
2022/12/24 07:35:19;;;;;;;8.95;5.35;;;23.50;50.30;;;;;;6066730;28;82232;-60
2022/12/24 07:38:20;;;;;;;7.38;5.28;;;23.50;50.10;;;;;;6072082;28;81241;-61
2022/12/24 07:41:20;;;;;;;7.40;4.78;;;23.50;49.80;;;;;;6072240;28;83050;-62
2022/12/24 07:44:21;;;;;;;6.85;5.43;;;23.50;49.80;;;;;;6081196;28;84661;-61
2022/12/24 07:47:21;;;;;;;9.13;5.55;;;23.50;49.80;;;;;;6072419;28;82457;-61
2022/12/24 07:50:22;;;;;;;7.57;5.18;;;23.40;50.20;;;;;;6061764;28;81500;-60
2022/12/24 07:53:22;;;;;;;7.43;5.38;;;23.50;49.90;;;;;;6057978;28;81484;-60
2022/12/24 07:56:23;;;;;;;6.05;5.00;;;23.50;49.80;;;;;;6056557;28;81411;-59
2022/12/24 07:59:23;;;;;;;8.55;4.63;;;23.50;49.80;;;;;;6054167;28;80935;-60
2022/12/24 08:02:24;;;;;;;7.60;4.45;;;23.50;49.70;;;;;;6049707;28;80521;-60
2022/12/24 08:05:24;;;;;;;6.90;4.63;;;23.50;49.70;;;;;;6055781;28;80663;-60
2022/12/24 08:08:25;;;;;;;6.78;4.78;;;23.50;49.50;;;;;;6057672;28;80768;-61
2022/12/24 08:11:25;;;;;;;10.45;5.68;;;23.50;49.60;;;;;;6083016;28;81647;-60
2022/12/24 08:14:26;;;;;;;6.20;4.38;;;23.50;49.70;;;;;;6070912;28;80447;-59
2022/12/24 08:17:26;;;;;;;7.40;5.00;;;23.50;49.60;;;;;;6061383;28;81503;-59
2022/12/24 08:20:27;;;;;;;9.48;5.05;;;23.50;49.50;;;;;;6076025;28;80464;-72
2022/12/24 08:23:28;;;;;;;7.72;4.63;;;23.50;49.50;;;;;;6077732;28;80618;-70
2022/12/24 08:26:28;;;;;;;11.45;5.88;;;23.50;49.50;;;;;;6083682;28;83406;-59
2022/12/24 08:29:29;;;;;;;5.97;4.75;;;23.50;49.30;;;;;;6080620;28;80408;-59
2022/12/24 08:32:29;;;;;;;6.40;4.40;;;23.50;49.20;;;;;;6054474;28;80637;-61
2022/12/24 08:35:30;;;;;;;8.45;4.72;;;23.50;49.20;;;;;;6061403;28;83141;-60
2022/12/24 08:38:30;;;;;;;7.63;4.97;;;23.50;49.10;;;;;;6057026;28;80563;-61
2022/12/24 08:41:31;;;;;;;12.25;4.38;;;23.50;49.00;;;;;;6062066;28;80391;-60
2022/12/24 08:44:31;;;;;;;8.32;4.95;;;23.50;49.10;;;;;;6063754;28;81293;-61
2022/12/24 08:47:32;;;;;;;6.50;4.57;;;23.50;49.00;;;;;;6060609;28;83293;-61
2022/12/24 08:50:32;;;;;;;7.00;4.60;;;23.50;49.00;;;;;;6057075;28;80674;-60
2022/12/24 08:53:33;;;;;;;5.88;4.40;;;23.50;49.00;;;;;;6058780;28;80336;-63
2022/12/24 08:56:34;;;;;;;5.78;4.25;;;23.50;48.90;;;;;;6058045;28;80795;-65
2022/12/24 08:59:34;;;;;;;6.05;4.75;;;23.50;48.80;;;;;;6057069;28;85154;-63
2022/12/24 09:02:36;;;;;;;6.57;4.50;;;23.50;48.70;;;;;;6060183;28;82056;-63
2022/12/24 09:05:36;;;;;;;7.38;4.35;;;23.70;48.60;;;;;;6059017;28;87036;-60
2022/12/24 09:08:37;;;;;;;5.30;4.30;;;23.80;48.90;;;;;;6062641;28;82484;-60
2022/12/24 09:11:38;;;;;;;6.50;4.55;;;23.90;48.60;;;;;;6066932;28;80581;-59
2022/12/24 09:14:38;;;;;;;6.45;5.30;;;23.90;48.00;;;;;;6057064;28;80709;-59
2022/12/24 09:17:39;;;;;;;6.80;5.07;;;23.90;47.10;;;;;;6060698;28;83789;-58
2022/12/24 09:20:39;;;;;;;10.32;5.28;;;23.70;45.90;;;;;;6066391;28;83557;-59
2022/12/24 09:23:40;;;;;;;8.43;5.45;;;23.60;46.20;;;;;;6062449;28;80419;-58
2022/12/24 09:26:41;;;;;;;7.70;4.70;;;23.50;46.40;;;;;;6073986;28;80292;-60
2022/12/24 09:29:41;;;;;;;8.07;4.90;;;23.40;46.30;;;;;;6069654;28;82424;-60
2022/12/24 09:32:42;;;;;;;11.35;5.68;;;23.10;45.60;;;;;;6066976;28;82212;-61
2022/12/24 09:35:42;;;;;;;19.88;7.63;;;22.90;45.80;;;;;;6077033;28;81103;-63
2022/12/24 09:38:43;;;;;;;23.02;7.32;;;22.80;46.70;;;;;;6067119;28;86439;-62
2022/12/24 09:41:43;;;;;;;25.75;7.13;;;22.70;46.90;;;;;;6066456;28;81884;-64
2022/12/24 09:44:44;;;;;;;12.45;5.53;;;22.60;47.30;;;;;;6061931;28;86585;-59
2022/12/24 09:47:44;;;;;;;14.65;6.25;;;22.50;47.40;;;;;;6058012;28;80760;-60
2022/12/24 09:50:45;;;;;;;10.77;5.47;;;22.40;47.70;;;;;;6070875;28;83791;-60
2022/12/24 09:53:45;;;;;;;11.25;5.22;;;22.30;48.60;;;;;;6071483;28;80933;-61
2022/12/24 09:56:46;;;;;;;8.70;4.32;;;22.30;48.70;;;;;;6068683;28;80832;-60
2022/12/24 09:59:46;;;;;;;9.10;3.92;;;22.20;48.70;;;;;;6076330;28;82282;-61
2022/12/24 10:02:47;;;;;;;11.57;4.10;;;22.10;49.00;;;;;;6050270;28;81421;-60
2022/12/24 10:05:47;;;;;;;8.38;3.70;;;22.10;49.20;;;;;;6055350;28;90093;-63
2022/12/24 10:08:48;;;;;;;5.78;2.97;;;22.10;49.90;;;;;;6077468;28;80543;-61
2022/12/24 10:11:48;;;;;;;7.32;3.85;;;22.00;50.30;;;;;;6063723;28;85120;-64
2022/12/24 10:14:49;;;;;;;8.30;3.53;;;22.00;50.70;;;;;;6064290;28;80948;-62
2022/12/24 10:17:49;;;;;;;7.45;3.15;;;21.80;50.70;;;;;;6057367;28;83697;-69
2022/12/24 10:20:50;;;;;;;6.68;3.55;;;21.70;50.30;;;;;;6073277;28;81458;-63
2022/12/24 10:23:51;;;;;;;6.72;3.55;;;21.80;50.10;;;;;;6080650;28;80511;-65
2022/12/24 10:26:51;;;;;;;15.60;10.43;;;21.80;49.60;;;;;;6081732;28;80776;-63
2022/12/24 10:29:52;;;;;;;35.10;23.45;;;21.80;49.70;;;;;;6076692;28;83310;-64
2022/12/24 10:32:52;;;;;;;118.78;70.03;;;21.80;49.40;;;;;;6072204;28;83671;-64
2022/12/24 10:35:53;;;;;;;148.90;91.97;;;21.80;49.30;;;;;;6069829;28;84078;-67
2022/12/24 10:38:53;;;;;;;168.90;116.22;;;21.80;49.10;;;;;;6066313;28;83880;-67
2022/12/24 10:41:56;;;;;;;225.63;153.10;;;21.80;49.00;;;;;;6075715;28;86899;-66
2022/12/24 10:44:56;;;;;;;335.88;235.40;;;21.80;48.70;;;;;;6081130;28;86300;-65
2022/12/24 10:47:57;;;;;;;292.85;198.02;;;21.80;48.60;;;;;;6051986;28;85964;-68
2022/12/24 10:50:58;;;;;;;224.13;147.32;;;21.70;48.70;;;;;;6071063;28;86546;-63
2022/12/24 10:53:58;;;;;;;225.65;151.00;;;21.60;48.60;;;;;;6067020;28;87433;-63
2022/12/24 10:56:59;;;;;;;224.15;147.55;;;21.90;49.60;;;;;;6068738;28;87182;-61
2022/12/24 10:59:59;;;;;;;199.32;132.80;;;22.10;50.10;;;;;;6074309;28;85518;-58
2022/12/24 11:03:00;;;;;;;187.02;124.35;;;22.20;50.60;;;;;;6042922;28;87303;-59
2022/12/24 11:06:01;;;;;;;170.80;113.78;;;22.40;50.90;;;;;;6054752;28;87270;-58
2022/12/24 11:09:01;;;;;;;167.75;108.45;;;22.50;51.60;;;;;;6049529;28;89737;-67
2022/12/24 11:12:02;;;;;;;145.80;97.07;;;22.60;51.70;;;;;;6049181;28;86309;-58
2022/12/24 11:15:02;;;;;;;136.88;90.68;;;22.70;51.70;;;;;;6047705;28;85605;-58
2022/12/24 11:18:03;;;;;;;121.03;83.40;;;22.80;52.00;;;;;;6069367;28;83465;-54
2022/12/24 11:21:04;;;;;;;114.32;76.85;;;22.90;52.80;;;;;;6066011;28;83589;-55
2022/12/24 11:24:04;;;;;;;113.00;72.38;;;23.00;53.70;;;;;;6070602;28;84276;-59
2022/12/24 11:27:05;;;;;;;102.70;66.85;;;23.00;53.60;;;;;;6061606;28;83578;-58
2022/12/24 11:30:05;;;;;;;96.07;61.42;;;23.00;53.60;;;;;;6068013;28;83288;-59
2022/12/24 11:33:06;;;;;;;79.57;51.42;;;23.10;53.00;;;;;;6063622;28;84433;-58
2022/12/24 11:36:06;;;;;;;74.03;48.35;;;23.10;52.40;;;;;;6061779;28;83967;-58
2022/12/24 11:39:07;;;;;;;63.38;41.80;;;23.10;52.30;;;;;;6058069;28;83594;-60
2022/12/24 11:42:07;;;;;;;57.85;34.60;;;23.10;51.70;;;;;;6046341;28;86161;-59
2022/12/24 11:45:08;;;;;;;42.22;26.30;;;23.10;51.00;;;;;;6058094;28;89245;-59
2022/12/24 11:48:08;;;;;;;29.77;18.83;;;23.10;49.90;;;;;;6063941;28;83439;-60
2022/12/24 11:51:09;;;;;;;24.80;14.48;;;23.10;49.30;;;;;;6048598;28;84724;-60
2022/12/24 11:54:09;;;;;;;21.73;12.65;;;23.10;48.80;;;;;;6061282;28;83353;-59
2022/12/24 11:57:10;;;;;;;15.38;9.32;;;23.10;48.10;;;;;;6061516;28;86680;-58
2022/12/24 12:00:11;;;;;;;13.13;7.75;;;23.10;47.80;;;;;;6068477;28;83523;-59
2022/12/24 12:03:11;;;;;;;13.50;7.70;;;23.20;47.40;;;;;;6060430;28;85275;-59
2022/12/24 12:06:12;;;;;;;11.63;6.97;;;23.20;47.00;;;;;;6060481;28;81415;-58
2022/12/24 12:09:13;;;;;;;10.73;5.78;;;23.20;46.70;;;;;;6060169;28;81286;-62
2022/12/24 12:12:13;;;;;;;9.48;5.35;;;23.20;46.60;;;;;;6055788;28;81475;-59
2022/12/24 12:15:14;;;;;;;9.55;5.00;;;23.20;46.30;;;;;;6063856;28;80652;-58
2022/12/24 12:18:15;;;;;;;11.98;5.28;;;23.30;46.40;;;;;;6065336;28;80475;-59
2022/12/24 12:21:15;;;;;;;10.73;5.03;;;23.20;46.50;;;;;;6055366;28;85891;-59
2022/12/24 12:24:16;;;;;;;10.98;5.40;;;23.30;46.90;;;;;;6064071;28;80738;-72
2022/12/24 12:27:16;;;;;;;8.98;5.05;;;23.30;47.20;;;;;;6061774;28;80339;-68
2022/12/24 12:30:17;;;;;;;13.63;4.63;;;23.40;47.50;;;;;;6068622;28;82451;-59
2022/12/24 12:33:17;;;;;;;9.68;4.82;;;23.50;48.60;;;;;;6064635;28;81050;-58
2022/12/24 12:36:18;;;;;;;12.30;5.05;;;23.50;49.30;;;;;;6053509;28;87848;-57
2022/12/24 12:39:18;;;;;;;7.18;4.05;;;23.60;50.30;;;;;;6054961;28;81376;-57
2022/12/24 12:42:19;;;;;;;10.20;4.65;;;23.60;50.10;;;;;;6054997;28;80635;-64
2022/12/24 12:45:19;;;;;;;8.80;4.40;;;23.60;50.30;;;;;;6063145;28;81427;-58
2022/12/24 12:48:20;;;;;;;7.88;4.00;;;23.60;51.70;;;;;;6062557;28;81280;-57
2022/12/24 12:51:21;;;;;;;14.48;4.10;;;23.70;52.20;;;;;;6080866;28;82197;-64
2022/12/24 12:54:22;;;;;;;15.48;4.57;;;23.70;52.10;;;;;;6062520;28;81357;-62
2022/12/24 12:57:22;;;;;;;7.13;4.38;;;23.70;52.50;;;;;;6080689;28;81495;-63
2022/12/24 13:00:23;;;;;;;10.90;4.93;;;23.70;53.10;;;;;;6079031;28;80702;-64
2022/12/24 13:03:23;;;;;;;11.38;4.70;;;23.70;53.20;;;;;;6058813;28;80824;-60
2022/12/24 13:06:24;;;;;;;10.00;4.38;;;23.80;52.60;;;;;;6055471;28;80409;-68
2022/12/24 13:09:24;;;;;;;7.55;4.07;;;23.70;52.30;;;;;;6046534;28;81289;-67
2022/12/24 13:12:25;;;;;;;9.93;4.13;;;23.70;52.60;;;;;;6055783;28;80542;-66
2022/12/24 13:15:25;;;;;;;7.68;3.92;;;23.80;52.40;;;;;;6057949;28;80752;-61
2022/12/24 13:18:26;;;;;;;10.25;4.22;;;23.80;52.30;;;;;;6058754;28;80758;-67
2022/12/24 13:21:27;;;;;;;8.43;4.15;;;23.80;52.00;;;;;;6055784;28;80819;-65
2022/12/24 13:24:27;;;;;;;8.23;4.32;;;23.80;51.80;;;;;;6054876;28;80749;-70
2022/12/24 13:27:29;;;;;;;7.35;3.83;;;23.80;51.70;;;;;;6070229;28;85238;-59
2022/12/24 13:30:29;;;;;;;6.32;3.97;;;23.80;51.70;;;;;;6064734;28;83534;-68
2022/12/24 13:33:30;;;;;;;14.15;4.97;;;23.90;51.60;;;;;;6055597;28;80053;-75
2022/12/24 13:36:30;;;;;;;7.35;4.55;;;23.90;51.30;;;;;;6061342;28;81284;-67
2022/12/24 13:39:31;;;;;;;5.90;3.92;;;23.90;51.50;;;;;;6055753;28;81281;-69
2022/12/24 13:42:31;;;;;;;11.43;4.97;;;23.90;51.80;;;;;;6067067;28;80389;-60
2022/12/24 13:45:32;;;;;;;11.07;5.22;;;23.90;51.90;;;;;;6059004;28;87287;-60
2022/12/24 13:48:33;;;;;;;10.32;5.43;;;23.90;51.80;;;;;;6058979;28;82687;-60
2022/12/24 13:51:33;;;;;;;11.68;5.53;;;23.90;51.20;;;;;;6071451;28;80644;-60
2022/12/24 13:54:34;;;;;;;13.38;6.45;;;23.90;51.00;;;;;;6057945;28;80754;-61
2022/12/24 13:57:34;;;;;;;9.27;5.43;;;23.90;51.00;;;;;;6056021;28;80616;-61
2022/12/24 14:00:35;;;;;;;10.13;5.53;;;23.90;50.80;;;;;;6061542;28;84571;-61
2022/12/24 14:03:35;;;;;;;9.02;5.38;;;23.90;51.10;;;;;;6064151;28;81056;-60
2022/12/24 14:06:36;;;;;;;8.75;5.05;;;23.80;49.90;;;;;;6062018;28;80175;-60
2022/12/24 14:09:36;;;;;;;9.15;5.63;;;23.90;49.40;;;;;;6074442;28;81771;-59
2022/12/24 14:12:37;;;;;;;10.23;5.22;;;23.80;49.00;;;;;;6058942;28;81974;-59
2022/12/24 14:15:37;;;;;;;10.75;5.63;;;23.80;49.10;;;;;;6060684;28;82031;-59
2022/12/24 14:18:38;;;;;;;10.98;5.65;;;23.80;49.30;;;;;;6072324;28;82443;-60
2022/12/24 14:21:38;;;;;;;13.20;5.03;;;23.80;49.50;;;;;;6090859;28;85751;-60
2022/12/24 14:24:39;;;;;;;19.30;5.40;;;23.70;49.50;;;;;;6090176;28;80588;-62
2022/12/24 14:27:39;;;;;;;12.18;5.88;;;23.70;49.80;;;;;;6089520;28;81305;-61
2022/12/24 14:30:40;;;;;;;9.90;5.43;;;23.70;49.90;;;;;;6092079;28;80569;-60
2022/12/24 14:33:40;;;;;;;7.75;4.53;;;23.80;50.20;;;;;;6085685;28;83984;-61
2022/12/24 14:36:41;;;;;;;11.52;5.60;;;23.80;49.90;;;;;;6091852;28;81134;-60
2022/12/24 14:39:41;;;;;;;10.75;5.70;;;23.80;49.80;;;;;;6093122;28;80483;-61
2022/12/24 14:42:42;;;;;;;9.25;5.32;;;23.80;49.80;;;;;;6097320;28;81340;-61
2022/12/24 14:45:42;;;;;;;12.45;5.95;;;23.80;49.90;;;;;;6109108;28;86052;-60
2022/12/24 14:48:43;;;;;;;12.35;5.75;;;23.80;49.70;;;;;;6094914;28;81184;-60
2022/12/24 14:51:43;;;;;;;12.93;6.68;;;23.80;49.70;;;;;;6124219;28;81655;-61
2022/12/24 14:54:44;;;;;;;13.80;6.20;;;23.80;49.70;;;;;;6107455;28;80779;-60
2022/12/24 14:57:45;;;;;;;15.73;7.20;;;23.80;49.60;;;;;;6104822;28;81284;-61
2022/12/24 15:00:45;;;;;;;13.18;6.72;;;23.80;49.80;;;;;;6098251;28;80838;-60
2022/12/24 15:03:46;;;;;;;12.30;6.70;;;23.80;49.80;;;;;;6082897;28;80566;-60
2022/12/24 15:06:49;;;;;;;14.07;6.97;;;23.80;49.80;;;;;;6091046;28;80519;-60
2022/12/24 15:09:50;;;;;;;13.77;7.13;;;23.90;50.00;;;;;;6083121;28;80849;-59
2022/12/24 15:12:50;;;;;;;14.32;7.28;;;23.90;49.90;;;;;;6093290;28;86884;-60
2022/12/24 15:15:51;;;;;;;12.90;7.88;;;23.90;50.00;;;;;;6093006;28;81103;-60
2022/12/24 15:18:51;;;;;;;11.57;7.43;;;23.90;50.10;;;;;;6084108;28;80645;-60
2022/12/24 15:21:52;;;;;;;13.82;7.55;;;23.80;50.10;;;;;;6087665;28;81079;-60
2022/12/24 15:24:52;;;;;;;12.82;7.70;;;23.80;50.10;;;;;;6083696;28;82678;-61
2022/12/24 15:27:53;;;;;;;13.75;7.72;;;23.90;50.20;;;;;;6083613;28;80673;-60
2022/12/24 15:30:53;;;;;;;13.63;7.40;;;23.90;50.20;;;;;;6086414;28;81227;-62
2022/12/24 15:33:54;;;;;;;13.73;7.28;;;23.90;50.30;;;;;;6089386;28;81797;-61
2022/12/24 15:36:54;;;;;;;13.80;7.55;;;23.90;50.30;;;;;;6081318;28;80638;-60
2022/12/24 15:39:55;;;;;;;12.18;7.15;;;23.90;50.40;;;;;;6078817;28;80976;-59
2022/12/24 15:42:55;;;;;;;15.20;7.40;;;23.90;50.40;;;;;;6057199;28;82627;-68